sim
Sign-in with your pilot id or email,
or register
Callsign
Passwort

Schedule Details

Flight Number: RYR9975 (1)
Departure: Thessaloniki International Airport (LGTS) at 16:55
Arrival: Bologna Guglielmo Marconi Airport (LIPE) at 18:55
Route: Ryanair Passenger Schedule. Enter filed route here before submitting Pirep.

Weather Information
Getting current METAR information for LGTS 210050Z 11006KT 9999 SCT025 09/07 Q1026 NOSIG
Getting current METAR information for LIPE 210050Z 22004KT CAVOK 11/05 Q1023

Schedule Frequency

Route Map